createdAt,value
2022-12-25T00:01:32.189Z,2.88
2022-12-25T00:03:59.588Z,2.53
2022-12-25T00:06:27.007Z,2.53
2022-12-25T00:08:53.941Z,3.35
2022-12-25T00:11:21.512Z,2.70
2022-12-25T00:13:49.139Z,2.60
2022-12-25T00:16:24.364Z,2.97
2022-12-25T00:21:21.100Z,2.88
2022-12-25T00:23:53.453Z,2.40
2022-12-25T00:26:20.512Z,2.78
2022-12-25T00:28:47.531Z,3.30
2022-12-25T00:31:17.787Z,3.03
2022-12-25T00:33:47.693Z,2.55
2022-12-25T00:36:18.647Z,2.75
2022-12-25T00:38:46.580Z,3.08
2022-12-25T00:41:18.299Z,2.80
2022-12-25T00:43:45.208Z,3.10
2022-12-25T00:46:13.810Z,2.72
2022-12-25T00:48:41.645Z,2.65
2022-12-25T00:51:12.056Z,2.65
2022-12-25T00:53:39.045Z,2.58
2022-12-25T00:56:08.114Z,2.95
2022-12-25T00:58:35.779Z,2.60
2022-12-25T01:01:04.172Z,2.25
2022-12-25T01:03:31.439Z,3.30
2022-12-25T01:06:02.660Z,3.30
2022-12-25T01:08:32.875Z,3.08
2022-12-25T01:11:08.867Z,3.00
2022-12-25T01:13:37.376Z,3.15
2022-12-25T01:16:11.894Z,2.80
2022-12-25T01:18:39.241Z,2.63
2022-12-25T01:21:16.091Z,2.85
2022-12-25T01:23:44.872Z,3.17
2022-12-25T01:26:15.349Z,3.03
2022-12-25T01:28:42.911Z,2.95
2022-12-25T01:31:17.709Z,2.85
2022-12-25T01:33:46.056Z,2.70
2022-12-25T01:36:25.845Z,2.70
2022-12-25T01:38:54.241Z,2.90
2022-12-25T01:41:24.671Z,3.20
2022-12-25T01:44:01.956Z,2.38
2022-12-25T01:46:30.319Z,2.78
2022-12-25T01:49:03.861Z,3.13
2022-12-25T01:52:05.323Z,3.72
2022-12-25T01:54:41.776Z,3.40
2022-12-25T01:57:18.391Z,2.67
2022-12-25T01:59:46.075Z,2.70
2022-12-25T02:02:13.262Z,2.67
2022-12-25T02:04:52.327Z,3.50
2022-12-25T02:07:25.945Z,2.85
2022-12-25T02:09:53.569Z,2.70
2022-12-25T02:12:33.793Z,2.70
2022-12-25T02:15:12.289Z,2.40
2022-12-25T02:18:17.423Z,2.20
2022-12-25T02:21:05.597Z,2.60
2022-12-25T02:24:25.964Z,2.90
2022-12-25T02:27:27.917Z,2.55
2022-12-25T02:30:09.812Z,2.53
2022-12-25T02:32:44.824Z,2.10
2022-12-25T02:35:28.366Z,2.90
2022-12-25T02:38:16.122Z,2.50
2022-12-25T02:40:51.575Z,3.28
2022-12-25T02:43:49.318Z,2.58
2022-12-25T02:46:41.274Z,2.58
2022-12-25T02:49:41.775Z,2.72
2022-12-25T02:52:40.884Z,2.65
2022-12-25T02:55:51.062Z,2.58
2022-12-25T02:58:41.836Z,2.40
2022-12-25T03:01:35.305Z,2.60
2022-12-25T03:04:29.575Z,2.50
2022-12-25T03:07:10.880Z,2.58
2022-12-25T03:10:07.260Z,2.60
2022-12-25T03:12:58.290Z,2.67
2022-12-25T03:15:44.594Z,3.47
2022-12-25T03:18:19.058Z,2.78
2022-12-25T03:21:04.571Z,3.50
2022-12-25T03:23:53.799Z,3.28
2022-12-25T03:26:39.192Z,3.20
2022-12-25T03:29:06.212Z,3.45
2022-12-25T03:32:11.511Z,3.47
2022-12-25T03:35:23.453Z,3.42
2022-12-25T03:38:50.837Z,3.67
2022-12-25T03:45:05.217Z,3.75
2022-12-25T03:48:07.475Z,3.95
2022-12-25T03:51:06.912Z,4.10
2022-12-25T03:54:14.457Z,3.63
2022-12-25T03:57:02.276Z,3.72
2022-12-25T03:59:47.927Z,3.80
2022-12-25T04:05:18.944Z,3.97
2022-12-25T04:08:04.566Z,4.28
2022-12-25T04:13:35.091Z,3.67
2022-12-25T04:16:20.480Z,3.45
2022-12-25T04:19:05.784Z,3.42
2022-12-25T04:21:51.459Z,3.78
2022-12-25T04:24:36.887Z,3.55
2022-12-25T04:27:22.453Z,3.05
2022-12-25T04:30:08.079Z,3.97
2022-12-25T04:35:38.872Z,3.33
2022-12-25T04:38:05.783Z,3.60
2022-12-25T04:40:32.722Z,3.30
2022-12-25T04:42:59.585Z,3.72
2022-12-25T04:45:26.522Z,3.95
2022-12-25T04:47:53.428Z,3.83
2022-12-25T04:50:20.419Z,3.65
2022-12-25T04:52:47.364Z,4.13
2022-12-25T04:55:14.290Z,4.53
2022-12-25T04:57:41.182Z,3.58
2022-12-25T05:00:09.005Z,3.08
2022-12-25T05:02:36.058Z,4.93
2022-12-25T05:05:03.434Z,3.28
2022-12-25T05:07:30.299Z,3.50
2022-12-25T05:09:57.321Z,4.30
2022-12-25T05:12:25.298Z,3.22
2022-12-25T05:14:52.159Z,3.42
2022-12-25T05:17:19.035Z,3.08
2022-12-25T05:19:45.884Z,3.67
2022-12-25T05:22:12.797Z,4.43
2022-12-25T05:24:39.692Z,3.20
2022-12-25T05:27:06.618Z,3.95
2022-12-25T05:29:33.451Z,3.83
2022-12-25T05:32:00.394Z,3.63
2022-12-25T05:34:27.323Z,3.88
2022-12-25T05:36:54.220Z,4.47
2022-12-25T05:39:21.178Z,3.70
2022-12-25T05:41:48.142Z,3.20
2022-12-25T05:44:15.084Z,3.72
2022-12-25T05:46:42.433Z,4.47
2022-12-25T05:49:09.613Z,4.60
2022-12-25T05:51:36.469Z,4.63
2022-12-25T05:54:03.601Z,3.80
2022-12-25T05:56:30.528Z,4.00
2022-12-25T05:58:57.409Z,3.53
2022-12-25T06:01:28.373Z,3.78
2022-12-25T06:03:57.196Z,4.15
2022-12-25T06:06:24.179Z,4.00
2022-12-25T06:08:55.259Z,3.80
2022-12-25T06:11:22.553Z,5.10
2022-12-25T06:13:51.793Z,4.10
2022-12-25T06:16:19.347Z,4.43
2022-12-25T06:18:50.000Z,5.18
2022-12-25T06:21:16.911Z,4.60
2022-12-25T06:23:44.469Z,4.72
2022-12-25T06:26:18.858Z,3.72
2022-12-25T06:28:46.630Z,3.60
2022-12-25T06:31:20.494Z,4.57
2022-12-25T06:33:48.143Z,4.18
2022-12-25T06:36:20.021Z,4.32
2022-12-25T06:38:47.623Z,3.78
2022-12-25T06:41:21.635Z,6.40
2022-12-25T06:43:54.726Z,3.75
2022-12-25T06:46:23.957Z,3.60
2022-12-25T06:48:51.532Z,4.82
2022-12-25T06:51:25.131Z,3.78
2022-12-25T06:53:54.459Z,4.00
2022-12-25T06:56:25.910Z,4.50
2022-12-25T06:58:56.707Z,4.38
2022-12-25T07:01:48.264Z,4.53
2022-12-25T07:04:41.798Z,4.70
2022-12-25T07:07:09.911Z,4.50
2022-12-25T07:09:39.376Z,4.53
2022-12-25T07:12:20.806Z,5.10
2022-12-25T07:14:51.019Z,4.78
2022-12-25T07:17:19.331Z,4.82
2022-12-25T07:19:47.320Z,6.00
2022-12-25T07:22:17.235Z,5.78
2022-12-25T07:24:44.532Z,5.95
2022-12-25T07:27:11.396Z,6.75
2022-12-25T07:29:38.452Z,6.82
2022-12-25T07:32:05.949Z,7.05
2022-12-25T07:34:33.099Z,6.03
2022-12-25T07:37:02.351Z,6.28
2022-12-25T07:39:29.402Z,6.68
2022-12-25T07:41:56.263Z,6.80
2022-12-25T07:44:27.514Z,7.80
2022-12-25T07:46:54.388Z,7.65
2022-12-25T07:49:21.407Z,7.47
2022-12-25T07:51:48.286Z,8.80
2022-12-25T07:54:15.184Z,8.48
2022-12-25T07:56:42.099Z,8.68
2022-12-25T07:59:09.110Z,6.90
2022-12-25T08:01:36.121Z,9.73
2022-12-25T08:04:03.787Z,9.00
2022-12-25T08:06:34.768Z,6.93
2022-12-25T08:09:12.015Z,6.72
2022-12-25T08:11:44.002Z,6.68
2022-12-25T08:14:10.957Z,5.85
2022-12-25T08:16:41.468Z,6.28
2022-12-25T08:19:09.356Z,6.70
2022-12-25T08:21:36.707Z,5.75
2022-12-25T08:24:04.495Z,6.15
2022-12-25T08:26:31.508Z,6.40
2022-12-25T08:28:58.882Z,5.97
2022-12-25T08:31:29.570Z,5.18
2022-12-25T08:33:58.849Z,6.10
2022-12-25T08:36:26.723Z,7.03
2022-12-25T08:39:00.359Z,8.05
2022-12-25T08:41:30.363Z,8.05
2022-12-25T08:43:57.668Z,8.38
2022-12-25T08:46:24.742Z,8.00
2022-12-25T08:48:51.693Z,8.13
2022-12-25T08:51:22.166Z,9.00
2022-12-25T08:53:51.137Z,8.88
2022-12-25T08:56:19.217Z,8.93
2022-12-25T08:58:46.394Z,9.60
2022-12-25T09:01:14.427Z,9.63
2022-12-25T09:03:41.838Z,9.60
2022-12-25T09:06:15.247Z,10.15
2022-12-25T09:08:48.260Z,10.05
2022-12-25T09:11:18.163Z,10.55
2022-12-25T09:13:45.294Z,10.73
2022-12-25T09:16:18.036Z,10.48
2022-12-25T09:18:45.085Z,9.85
2022-12-25T09:21:15.168Z,9.85
2022-12-25T09:23:42.805Z,10.18
2022-12-25T09:26:14.532Z,8.90
2022-12-25T09:28:50.172Z,9.85
2022-12-25T09:31:18.111Z,10.32
2022-12-25T09:33:45.055Z,9.90
2022-12-25T09:36:12.226Z,9.48
2022-12-25T09:38:39.483Z,7.85
2022-12-25T09:41:28.621Z,9.10
2022-12-25T09:44:14.667Z,9.90
2022-12-25T09:46:50.746Z,10.68
2022-12-25T09:49:32.575Z,9.20
2022-12-25T09:52:10.384Z,9.77
2022-12-25T09:54:56.306Z,9.15
2022-12-25T09:57:26.092Z,9.85
2022-12-25T09:59:56.722Z,9.05
2022-12-25T10:02:39.738Z,9.88
2022-12-25T10:05:33.555Z,9.10
2022-12-25T10:08:35.861Z,9.10
2022-12-25T10:11:47.649Z,9.27
2022-12-25T10:14:58.063Z,8.50
2022-12-25T10:18:13.303Z,8.25
2022-12-25T10:20:53.063Z,7.10
2022-12-25T10:23:28.036Z,8.57
2022-12-25T10:25:55.490Z,7.13
2022-12-25T10:29:05.384Z,7.88
2022-12-25T10:31:37.175Z,6.57
2022-12-25T10:34:07.127Z,6.78
2022-12-25T10:36:34.257Z,6.68
2022-12-25T10:39:01.171Z,7.72
2022-12-25T10:42:22.011Z,6.80
2022-12-25T10:44:57.720Z,6.05
2022-12-25T10:47:37.854Z,7.07
2022-12-25T10:50:19.316Z,6.35
2022-12-25T10:53:04.359Z,7.28
2022-12-25T10:55:33.096Z,7.10
2022-12-25T10:58:01.865Z,7.15
2022-12-25T11:00:32.762Z,6.47
2022-12-25T11:03:00.640Z,6.75
2022-12-25T11:05:31.216Z,6.30
2022-12-25T11:08:01.296Z,7.00
2022-12-25T11:10:42.232Z,7.40
2022-12-25T11:13:30.735Z,7.28
2022-12-25T11:16:26.277Z,7.07
2022-12-25T11:18:57.388Z,6.90
2022-12-25T11:21:31.951Z,6.22
2022-12-25T11:24:07.010Z,6.82
2022-12-25T11:26:53.211Z,6.88
2022-12-25T11:29:52.582Z,6.88
2022-12-25T11:32:30.529Z,5.65
2022-12-25T11:34:59.890Z,6.60
2022-12-25T11:37:55.949Z,5.57
2022-12-25T11:40:31.973Z,5.78
2022-12-25T11:43:14.764Z,5.53
2022-12-25T11:45:51.670Z,7.20
2022-12-25T11:48:28.064Z,6.10
2022-12-25T11:51:00.358Z,6.25
2022-12-25T11:53:44.422Z,5.45
2022-12-25T11:56:23.874Z,5.90
2022-12-25T11:59:18.624Z,6.25
2022-12-25T12:01:55.052Z,5.25
2022-12-25T12:04:35.172Z,5.05
2022-12-25T12:07:16.997Z,5.60
2022-12-25T12:10:21.020Z,5.18
2022-12-25T12:13:19.553Z,6.35
2022-12-25T12:15:49.887Z,5.68
2022-12-25T12:18:23.503Z,5.45
2022-12-25T12:21:20.852Z,5.90
2022-12-25T12:24:12.694Z,6.15
2022-12-25T12:26:43.989Z,5.60
2022-12-25T12:29:51.649Z,6.68
2022-12-25T12:32:46.051Z,5.90
2022-12-25T12:35:37.841Z,5.68
2022-12-25T12:38:12.811Z,6.53
2022-12-25T12:40:57.692Z,6.40
2022-12-25T12:43:40.935Z,5.45
2022-12-25T12:46:32.810Z,5.75
2022-12-25T12:49:24.980Z,5.75
2022-12-25T12:52:07.737Z,5.55
2022-12-25T12:55:12.905Z,5.47
2022-12-25T12:57:40.997Z,5.38
2022-12-25T13:00:16.891Z,5.18
2022-12-25T13:03:38.026Z,5.07
2022-12-25T13:06:54.192Z,4.53
2022-12-25T13:09:39.147Z,5.20
2022-12-25T13:12:12.867Z,5.40
2022-12-25T13:14:46.040Z,5.40
2022-12-25T13:17:20.034Z,5.30
2022-12-25T13:19:52.595Z,4.57
2022-12-25T13:22:30.115Z,5.03
2022-12-25T13:25:01.352Z,5.55
2022-12-25T13:27:32.218Z,5.57
2022-12-25T13:29:59.746Z,7.00
2022-12-25T13:32:31.746Z,5.68
2022-12-25T13:35:00.606Z,5.70
2022-12-25T13:37:31.140Z,6.13
2022-12-25T13:40:07.120Z,6.35
2022-12-25T13:42:39.838Z,6.38
2022-12-25T13:45:29.472Z,6.45
2022-12-25T13:47:57.402Z,6.30
2022-12-25T13:50:35.056Z,6.18
2022-12-25T13:53:16.313Z,6.80
2022-12-25T13:55:50.720Z,6.03
2022-12-25T13:58:31.410Z,6.65
2022-12-25T14:01:00.667Z,5.85
2022-12-25T14:03:46.031Z,6.05
2022-12-25T14:06:29.780Z,6.50
2022-12-25T14:08:59.416Z,5.40
2022-12-25T14:11:29.906Z,5.88
2022-12-25T14:14:02.323Z,6.28
2022-12-25T14:16:29.861Z,5.45
2022-12-25T14:19:01.086Z,5.53
2022-12-25T14:21:41.749Z,5.90
2022-12-25T14:24:15.107Z,6.03
2022-12-25T14:26:43.134Z,5.75
2022-12-25T14:29:22.477Z,5.78
2022-12-25T14:31:53.145Z,6.55
2022-12-25T14:34:26.010Z,5.15
2022-12-25T14:36:53.556Z,5.40
2022-12-25T14:39:38.982Z,5.47
2022-12-25T14:42:21.595Z,5.60
2022-12-25T14:44:59.882Z,5.10
2022-12-25T14:47:28.122Z,5.38
2022-12-25T14:49:55.052Z,5.40
2022-12-25T14:52:42.453Z,5.40
2022-12-25T14:55:23.118Z,6.30
2022-12-25T14:58:01.510Z,6.28
2022-12-25T15:00:37.675Z,6.43
2022-12-25T15:03:24.193Z,5.65
2022-12-25T15:06:21.119Z,5.40
2022-12-25T15:09:00.706Z,5.30
2022-12-25T15:11:28.751Z,5.80
2022-12-25T15:13:56.267Z,5.88
2022-12-25T15:16:28.697Z,6.25
2022-12-25T15:18:56.455Z,6.05
2022-12-25T15:21:33.727Z,5.68
2022-12-25T15:24:01.101Z,5.80
2022-12-25T15:26:31.851Z,6.40
2022-12-25T15:28:59.300Z,5.55
2022-12-25T15:31:29.964Z,6.47
2022-12-25T15:34:00.854Z,5.70
2022-12-25T15:36:29.018Z,6.43
2022-12-25T15:38:56.212Z,6.60
2022-12-25T15:41:48.777Z,5.70
2022-12-25T15:44:16.979Z,6.38
2022-12-25T15:46:45.881Z,6.75
2022-12-25T15:49:14.586Z,6.93
2022-12-25T15:51:42.977Z,6.85
2022-12-25T15:54:10.845Z,6.68
2022-12-25T15:56:50.773Z,7.70
2022-12-25T15:59:20.110Z,8.23
2022-12-25T16:01:53.972Z,8.25
2022-12-25T16:04:23.006Z,6.97
2022-12-25T16:06:51.436Z,7.07
2022-12-25T16:09:21.275Z,7.57
2022-12-25T16:11:49.666Z,7.47
2022-12-25T16:14:16.852Z,7.68
2022-12-25T16:16:43.788Z,7.57
2022-12-25T16:19:10.901Z,8.73
2022-12-25T16:21:43.248Z,7.55
2022-12-25T16:24:10.288Z,7.50
2022-12-25T16:26:37.527Z,8.00
2022-12-25T16:29:07.299Z,8.48
2022-12-25T16:31:36.617Z,8.98
2022-12-25T16:34:05.717Z,8.35
2022-12-25T16:36:33.748Z,10.30
2022-12-25T16:39:00.745Z,9.35
2022-12-25T16:41:27.693Z,9.52
2022-12-25T16:43:54.582Z,9.15
2022-12-25T16:46:22.661Z,8.60
2022-12-25T16:48:50.086Z,8.43
2022-12-25T16:51:20.958Z,9.65
2022-12-25T16:53:48.188Z,9.02
2022-12-25T16:56:20.669Z,9.52
2022-12-25T16:58:48.242Z,9.40
2022-12-25T17:01:18.701Z,9.45
2022-12-25T17:03:47.168Z,9.15
2022-12-25T17:06:23.935Z,9.43
2022-12-25T17:08:52.993Z,9.95
2022-12-25T17:11:27.264Z,10.63
2022-12-25T17:13:55.385Z,10.30
2022-12-25T17:16:26.665Z,10.88
2022-12-25T17:19:04.251Z,10.52
2022-12-25T17:21:34.127Z,10.48
2022-12-25T17:24:04.091Z,10.32
2022-12-25T17:26:32.769Z,11.15
2022-12-25T17:29:00.292Z,10.90
2022-12-25T17:31:27.798Z,11.68
2022-12-25T17:33:55.024Z,12.80
2022-12-25T17:36:23.211Z,10.85
2022-12-25T17:38:50.322Z,11.35
2022-12-25T17:41:19.562Z,11.82
2022-12-25T17:43:47.738Z,10.25
2022-12-25T17:46:18.898Z,11.40
2022-12-25T17:48:46.885Z,11.00
2022-12-25T17:51:18.092Z,10.68
2022-12-25T17:53:49.149Z,10.40
2022-12-25T17:56:17.691Z,9.93
2022-12-25T17:58:50.533Z,10.00
2022-12-25T18:01:18.679Z,10.57
2022-12-25T18:03:46.702Z,10.45
2022-12-25T18:06:19.505Z,9.90
2022-12-25T18:08:48.373Z,10.57
2022-12-25T18:11:23.263Z,10.02
2022-12-25T18:13:53.440Z,10.50
2022-12-25T18:16:24.389Z,10.63
2022-12-25T18:18:53.066Z,10.65
2022-12-25T18:21:22.536Z,9.20
2022-12-25T18:23:50.911Z,9.80
2022-12-25T18:26:20.284Z,10.05
2022-12-25T18:28:49.629Z,9.95
2022-12-25T18:31:21.083Z,9.38
2022-12-25T18:33:49.513Z,9.63
2022-12-25T18:36:20.703Z,8.93
2022-12-25T18:38:49.758Z,9.13
2022-12-25T18:41:18.007Z,9.20
2022-12-25T18:43:53.619Z,9.35
2022-12-25T18:46:25.723Z,8.95
2022-12-25T18:48:57.304Z,8.75
2022-12-25T18:51:24.649Z,7.97
2022-12-25T18:53:51.871Z,8.90
2022-12-25T18:56:20.503Z,8.30
2022-12-25T18:58:47.994Z,7.95
2022-12-25T19:01:27.521Z,8.20
2022-12-25T19:04:00.239Z,8.43
2022-12-25T19:06:33.342Z,7.75
2022-12-25T19:09:00.374Z,8.82
2022-12-25T19:11:27.286Z,8.75
2022-12-25T19:13:54.155Z,8.35
2022-12-25T19:16:21.404Z,8.02
2022-12-25T19:18:48.526Z,7.57
2022-12-25T19:21:16.126Z,7.85
2022-12-25T19:23:45.015Z,8.27
2022-12-25T19:26:12.621Z,8.07
2022-12-25T19:28:40.653Z,7.32
2022-12-25T19:31:09.392Z,7.40
2022-12-25T19:33:41.739Z,6.88
2022-12-25T19:36:15.446Z,7.15
2022-12-25T19:38:43.569Z,7.15
2022-12-25T19:41:17.825Z,7.90
2022-12-25T19:43:49.917Z,7.60
2022-12-25T19:46:21.169Z,7.57
2022-12-25T19:48:48.477Z,8.02
2022-12-25T19:51:29.069Z,6.75
2022-12-25T19:53:56.567Z,7.40
2022-12-25T19:56:25.348Z,6.28
2022-12-25T19:58:53.148Z,6.15
2022-12-25T20:01:23.292Z,6.85
2022-12-25T20:03:51.075Z,7.35
2022-12-25T20:06:33.745Z,6.50
2022-12-25T20:09:05.388Z,6.15
2022-12-25T20:11:34.436Z,6.00
2022-12-25T20:14:02.100Z,5.78
2022-12-25T20:16:29.313Z,5.75
2022-12-25T20:18:58.287Z,6.30
2022-12-25T20:21:29.913Z,5.50
2022-12-25T20:23:57.730Z,5.93
2022-12-25T20:26:30.655Z,6.22
2022-12-25T20:28:59.040Z,5.72
2022-12-25T20:31:30.493Z,5.97
2022-12-25T20:34:04.027Z,6.28
2022-12-25T20:36:36.375Z,5.82
2022-12-25T20:39:09.820Z,5.40
2022-12-25T20:41:38.067Z,5.65
2022-12-25T20:44:06.748Z,5.25
2022-12-25T20:46:34.270Z,6.40
2022-12-25T20:49:02.467Z,5.53
2022-12-25T20:51:29.491Z,5.70
2022-12-25T20:53:56.920Z,6.00
2022-12-25T20:56:26.627Z,5.93
2022-12-25T20:58:59.234Z,5.10
2022-12-25T21:01:28.379Z,6.20
2022-12-25T21:03:56.823Z,6.35
2022-12-25T21:06:24.373Z,5.68
2022-12-25T21:08:51.390Z,6.20
2022-12-25T21:11:18.522Z,6.60
2022-12-25T21:13:46.107Z,6.60
2022-12-25T21:16:18.542Z,6.43
2022-12-25T21:18:46.647Z,5.78
2022-12-25T21:21:14.495Z,6.95
2022-12-25T21:23:42.027Z,6.88
2022-12-25T21:26:28.551Z,6.97
2022-12-25T21:29:00.375Z,6.93
2022-12-25T21:31:28.587Z,6.57
2022-12-25T21:33:57.526Z,7.35
2022-12-25T21:36:30.694Z,7.32
2022-12-25T21:39:04.199Z,7.00
2022-12-25T21:41:33.690Z,6.50
2022-12-25T21:44:01.715Z,6.97
2022-12-25T21:46:33.143Z,6.65
2022-12-25T21:49:00.581Z,6.00
2022-12-25T21:52:10.400Z,6.30
2022-12-25T21:54:37.599Z,5.88
2022-12-25T21:57:04.943Z,6.53
2022-12-25T21:59:31.898Z,6.15
2022-12-25T22:01:59.590Z,7.03
2022-12-25T22:04:27.038Z,6.38
2022-12-25T22:07:12.617Z,7.35
2022-12-25T22:12:31.985Z,6.70
2022-12-25T22:15:06.084Z,6.90
2022-12-25T22:17:59.712Z,6.45
2022-12-25T22:20:35.469Z,6.78
2022-12-25T22:23:02.810Z,7.03
2022-12-25T22:25:29.725Z,7.22
2022-12-25T22:27:57.486Z,6.72
2022-12-25T22:30:28.029Z,6.78
2022-12-25T22:32:56.178Z,9.25
2022-12-25T22:35:24.052Z,7.07
2022-12-25T22:37:51.327Z,7.20
2022-12-25T22:40:20.535Z,7.20
2022-12-25T22:42:47.444Z,6.70
2022-12-25T22:45:14.927Z,7.28
2022-12-25T22:47:42.282Z,6.60
2022-12-25T22:50:10.985Z,7.38
2022-12-25T22:52:38.761Z,6.53
2022-12-25T22:55:08.501Z,6.28
2022-12-25T22:57:36.202Z,6.80
2022-12-25T23:00:05.843Z,6.35
2022-12-25T23:02:32.830Z,6.70
2022-12-25T23:04:59.806Z,6.47
2022-12-25T23:07:26.758Z,6.65
2022-12-25T23:09:53.644Z,6.20
2022-12-25T23:12:39.316Z,6.65
2022-12-25T23:15:07.064Z,5.97
2022-12-25T23:17:53.965Z,6.18
2022-12-25T23:20:39.731Z,6.50
2022-12-25T23:23:25.002Z,6.10
2022-12-25T23:26:07.497Z,6.05
2022-12-25T23:29:01.675Z,5.90
2022-12-25T23:31:35.256Z,5.78
2022-12-25T23:34:04.769Z,5.80
2022-12-25T23:36:32.651Z,6.20
2022-12-25T23:39:06.729Z,5.47
2022-12-25T23:41:36.620Z,5.18
2022-12-25T23:44:04.090Z,5.80
2022-12-25T23:46:31.211Z,5.90
2022-12-25T23:48:58.264Z,5.57
2022-12-25T23:51:25.682Z,5.82
2022-12-25T23:53:52.635Z,5.70
2022-12-25T23:56:19.519Z,5.50
2022-12-25T23:58:51.592Z,5.38
